Time;durP1;ratioP1;P1;durP2;ratioP2;P2;SDS_P1;SDS_P2;PMS_P1;PMS_P2;Temp;Humidity;BMP_temperature;BMP_pressure;BME280_temperature;BME280_humidity;BME280_pressure;Samples;Min_cycle;Max_cycle;Signal;HPM_P1;HPM_P2
2023/06/16 00:01:41;;;;;;;5.63;4.70;;;21.40;82.10;;;;;;5011616;28;20036;-53
2023/06/16 00:04:08;;;;;;;7.55;4.60;;;21.40;82.00;;;;;;5011553;28;20359;-53
2023/06/16 00:06:34;;;;;;;6.88;4.40;;;21.40;82.00;;;;;;5011498;28;20022;-53
2023/06/16 00:09:00;;;;;;;9.75;5.40;;;21.30;81.90;;;;;;5011449;28;20032;-53
2023/06/16 00:11:27;;;;;;;5.75;5.05;;;21.30;81.80;;;;;;5011857;28;20077;-53
2023/06/16 00:13:54;;;;;;;9.48;5.30;;;21.30;81.90;;;;;;5011390;28;20067;-53
2023/06/16 00:16:20;;;;;;;6.93;5.18;;;21.30;82.00;;;;;;5011355;28;20025;-52
2023/06/16 00:18:51;;;;;;;9.90;5.30;;;21.30;81.80;;;;;;5011305;28;20064;-52
2023/06/16 00:21:25;;;;;;;9.18;5.05;;;21.30;81.70;;;;;;5011417;28;20508;-51
2023/06/16 00:23:54;;;;;;;7.68;4.78;;;21.30;81.70;;;;;;5011702;28;20521;-52
2023/06/16 00:26:20;;;;;;;9.63;4.78;;;21.30;81.50;;;;;;5011687;28;20505;-53
2023/06/16 00:28:46;;;;;;;11.43;5.57;;;21.30;81.50;;;;;;5011013;28;20061;-53
2023/06/16 00:31:11;;;;;;;9.60;5.35;;;21.30;81.40;;;;;;5010553;28;20113;-50
2023/06/16 00:33:37;;;;;;;7.25;5.35;;;21.30;81.40;;;;;;5011395;28;20438;-53
2023/06/16 00:36:03;;;;;;;7.00;4.97;;;21.20;81.40;;;;;;5011233;28;20029;-51
2023/06/16 00:38:28;;;;;;;8.65;5.25;;;21.20;81.40;;;;;;5011333;28;20124;-52
2023/06/16 00:40:54;;;;;;;5.65;4.47;;;21.20;81.40;;;;;;5011202;28;20022;-52
2023/06/16 00:43:20;;;;;;;6.13;5.07;;;21.20;81.40;;;;;;5011077;28;20076;-51
2023/06/16 00:45:49;;;;;;;7.97;4.60;;;21.10;81.50;;;;;;5011552;28;20054;-52
2023/06/16 00:48:15;;;;;;;7.45;5.32;;;21.10;81.40;;;;;;5011357;28;20025;-53
2023/06/16 00:50:41;;;;;;;8.52;5.07;;;21.10;81.50;;;;;;5011107;28;20037;-53
2023/06/16 00:53:07;;;;;;;7.25;4.88;;;21.10;81.50;;;;;;5011356;28;20029;-50
2023/06/16 00:55:33;;;;;;;7.80;5.15;;;21.00;81.50;;;;;;5011499;28;20041;-53
2023/06/16 00:57:59;;;;;;;5.68;4.50;;;21.00;81.60;;;;;;5011211;28;20038;-53
2023/06/16 01:00:25;;;;;;;7.03;4.90;;;21.00;81.70;;;;;;5011243;28;20053;-53
2023/06/16 01:02:51;;;;;;;6.13;4.90;;;21.00;81.90;;;;;;5013202;28;20022;-52
2023/06/16 01:05:21;;;;;;;7.18;5.50;;;21.00;82.00;;;;;;5015274;28;20040;-53
2023/06/16 01:08:04;;;;;;;6.70;5.43;;;21.00;82.00;;;;;;5014935;28;20029;-53
2023/06/16 01:10:54;;;;;;;9.23;5.15;;;21.00;81.90;;;;;;5014783;28;20033;-51
2023/06/16 01:13:47;;;;;;;7.40;4.90;;;20.90;82.20;;;;;;5014515;28;20053;-51
2023/06/16 01:16:15;;;;;;;5.40;4.75;;;20.90;82.00;;;;;;5014434;28;20038;-51
2023/06/16 01:18:43;;;;;;;7.28;4.75;;;20.90;82.40;;;;;;5014370;28;20034;-52
2023/06/16 01:21:31;;;;;;;6.63;5.10;;;20.90;82.40;;;;;;5014554;28;20025;-53
2023/06/16 01:24:07;;;;;;;5.55;4.90;;;20.90;82.30;;;;;;5014715;28;20022;-54
2023/06/16 01:26:37;;;;;;;7.75;5.40;;;20.90;82.70;;;;;;5014617;28;20393;-47
2023/06/16 01:29:06;;;;;;;6.00;4.82;;;20.80;83.10;;;;;;5014628;28;20393;-53
2023/06/16 01:31:33;;;;;;;7.93;5.10;;;20.80;83.40;;;;;;5014221;28;20481;-53
2023/06/16 01:34:01;;;;;;;6.30;4.88;;;20.80;83.40;;;;;;5014533;28;20389;-52
2023/06/16 01:36:31;;;;;;;6.75;5.18;;;20.80;83.30;;;;;;5014366;28;20034;-53
2023/06/16 01:39:00;;;;;;;7.67;5.03;;;20.80;83.30;;;;;;5014518;28;20037;-49
2023/06/16 01:41:27;;;;;;;6.80;4.88;;;20.80;83.20;;;;;;5014295;28;20033;-53
2023/06/16 01:43:54;;;;;;;7.90;5.20;;;20.80;82.90;;;;;;5014248;28;20455;-54
2023/06/16 01:46:21;;;;;;;5.45;4.80;;;20.80;82.60;;;;;;5014052;28;20079;-53
2023/06/16 01:48:46;;;;;;;6.28;5.03;;;20.70;82.60;;;;;;5012994;28;20473;-53
2023/06/16 01:51:14;;;;;;;6.13;4.90;;;20.70;82.70;;;;;;5013526;28;20259;-53
2023/06/16 01:53:39;;;;;;;7.93;4.95;;;20.70;82.70;;;;;;5014151;28;20029;-51
2023/06/16 01:56:05;;;;;;;8.02;5.15;;;20.70;82.60;;;;;;5013740;28;20083;-53
2023/06/16 01:58:31;;;;;;;6.78;4.93;;;20.70;83.30;;;;;;5013939;28;20153;-54
2023/06/16 02:01:04;;;;;;;6.25;4.43;;;20.70;82.80;;;;;;5013700;28;20033;-51
2023/06/16 02:03:37;;;;;;;7.00;4.70;;;20.70;83.00;;;;;;5013754;28;20076;-53
2023/06/16 02:06:08;;;;;;;6.88;4.68;;;20.70;83.00;;;;;;5013715;28;20045;-52
2023/06/16 02:08:36;;;;;;;8.10;5.28;;;20.70;83.20;;;;;;5013608;28;20117;-52
2023/06/16 02:11:02;;;;;;;7.25;4.97;;;20.70;83.20;;;;;;5013571;28;20032;-53
2023/06/16 02:13:29;;;;;;;7.10;4.85;;;20.70;83.20;;;;;;5012952;28;20153;-49
2023/06/16 02:15:55;;;;;;;6.72;4.93;;;20.70;83.20;;;;;;5013358;28;20555;-53
2023/06/16 02:18:27;;;;;;;7.75;5.13;;;20.70;83.20;;;;;;5013451;28;20097;-53
2023/06/16 02:20:56;;;;;;;6.78;4.95;;;20.70;83.20;;;;;;5013528;28;20490;-53
2023/06/16 02:23:21;;;;;;;6.32;4.78;;;20.70;83.00;;;;;;5013522;28;20028;-52
2023/06/16 02:25:47;;;;;;;7.45;4.75;;;20.70;83.00;;;;;;5013211;28;20033;-51
2023/06/16 02:28:13;;;;;;;6.43;5.07;;;20.70;83.10;;;;;;5013210;28;20033;-52
2023/06/16 02:30:38;;;;;;;8.32;5.25;;;20.70;83.60;;;;;;5013149;28;20516;-53
2023/06/16 02:33:04;;;;;;;5.97;4.57;;;20.80;83.50;;;;;;5013118;28;20100;-54
2023/06/16 02:35:30;;;;;;;6.82;4.70;;;20.80;83.70;;;;;;5013172;28;20444;-52
2023/06/16 02:37:56;;;;;;;5.72;4.78;;;20.80;83.30;;;;;;5012926;28;20037;-52
2023/06/16 02:40:21;;;;;;;7.82;4.90;;;20.80;83.10;;;;;;5012888;28;20428;-53
2023/06/16 02:42:48;;;;;;;7.72;4.97;;;20.80;82.90;;;;;;5012939;28;20030;-52
2023/06/16 02:45:14;;;;;;;6.60;4.70;;;20.90;82.90;;;;;;5013151;28;20489;-53
2023/06/16 02:47:40;;;;;;;8.10;5.20;;;20.90;82.90;;;;;;5012771;28;20057;-51
2023/06/16 02:50:07;;;;;;;7.50;4.68;;;20.90;82.30;;;;;;5012863;28;20038;-52
2023/06/16 02:52:33;;;;;;;5.97;4.43;;;20.90;82.20;;;;;;5012670;28;20030;-54
2023/06/16 02:55:00;;;;;;;6.65;4.43;;;20.90;81.80;;;;;;5012832;28;20366;-53
2023/06/16 02:57:25;;;;;;;7.25;4.80;;;21.00;81.40;;;;;;5012951;28;20100;-53
2023/06/16 02:59:51;;;;;;;6.47;5.00;;;21.00;81.10;;;;;;5012858;28;20485;-51
2023/06/16 03:02:17;;;;;;;7.78;4.80;;;21.00;80.80;;;;;;5012536;28;20026;-50
2023/06/16 03:04:42;;;;;;;7.38;4.78;;;21.10;80.50;;;;;;5012677;28;20113;-53
2023/06/16 03:07:09;;;;;;;7.47;4.63;;;21.10;80.60;;;;;;5012810;28;20032;-54
2023/06/16 03:09:35;;;;;;;5.57;4.38;;;21.10;80.50;;;;;;5012947;28;20022;-52
2023/06/16 03:12:01;;;;;;;8.35;4.55;;;21.10;80.20;;;;;;5012253;28;20469;-51
2023/06/16 03:14:27;;;;;;;7.68;4.35;;;21.20;79.80;;;;;;5012107;28;20053;-53
2023/06/16 03:16:53;;;;;;;8.45;4.85;;;21.20;79.20;;;;;;5012219;28;20096;-53
2023/06/16 03:19:19;;;;;;;7.70;4.78;;;21.30;79.00;;;;;;5012266;28;20018;-52
2023/06/16 03:21:45;;;;;;;7.97;5.20;;;21.30;78.20;;;;;;5012233;28;20088;-53
2023/06/16 03:24:16;;;;;;;6.47;4.50;;;21.30;77.80;;;;;;5011616;28;20053;-50
2023/06/16 03:26:43;;;;;;;5.90;4.53;;;21.40;77.60;;;;;;5012007;28;20501;-53
2023/06/16 03:29:09;;;;;;;6.05;4.78;;;21.50;77.60;;;;;;5012196;28;20048;-53
2023/06/16 03:31:35;;;;;;;7.47;5.38;;;21.50;77.40;;;;;;5012046;28;20037;-53
2023/06/16 03:34:01;;;;;;;6.75;4.78;;;21.70;77.90;;;;;;5012259;28;20433;-54
2023/06/16 03:36:27;;;;;;;7.15;4.65;;;22.00;78.10;;;;;;5011740;28;20096;-54
2023/06/16 03:38:53;;;;;;;5.55;4.20;;;22.40;77.50;;;;;;5011903;28;20113;-54
2023/06/16 03:41:18;;;;;;;5.85;4.15;;;23.00;77.00;;;;;;5011874;28;20062;-52
2023/06/16 03:43:44;;;;;;;7.70;4.75;;;23.60;75.20;;;;;;5011889;28;20045;-53
2023/06/16 03:46:10;;;;;;;7.00;4.28;;;24.30;73.60;;;;;;5011857;28;20052;-54
2023/06/16 03:48:35;;;;;;;6.93;4.22;;;25.10;71.40;;;;;;5012021;28;20029;-54
2023/06/16 03:51:01;;;;;;;5.85;4.13;;;26.00;69.80;;;;;;5008752;28;20547;-52
2023/06/16 03:53:27;;;;;;;6.50;4.38;;;27.00;66.60;;;;;;5011474;28;20026;-54
2023/06/16 03:55:53;;;;;;;7.20;4.38;;;28.00;64.10;;;;;;5009919;28;20058;-55
2023/06/16 03:58:18;;;;;;;8.80;4.13;;;28.80;61.90;;;;;;5009585;28;20041;-55
2023/06/16 04:00:44;;;;;;;5.63;3.70;;;29.70;60.00;;;;;;5009688;28;20033;-55
2023/06/16 04:03:11;;;;;;;5.28;3.60;;;30.50;58.40;;;;;;5009958;28;20397;-54
2023/06/16 04:05:37;;;;;;;5.60;3.65;;;31.20;56.70;;;;;;5009793;28;20030;-53
2023/06/16 04:08:03;;;;;;;5.15;3.90;;;32.00;55.10;;;;;;5010571;28;20026;-55
2023/06/16 04:10:29;;;;;;;7.00;3.70;;;32.60;54.00;;;;;;5011735;28;20029;-55
2023/06/16 04:12:55;;;;;;;6.05;3.83;;;33.30;53.10;;;;;;5011213;28;20044;-52
2023/06/16 04:15:20;;;;;;;6.30;3.80;;;33.80;52.10;;;;;;5011529;28;20030;-55
2023/06/16 04:17:46;;;;;;;5.38;3.33;;;34.40;51.00;;;;;;5011624;28;20041;-52
2023/06/16 04:20:12;;;;;;;4.65;3.33;;;34.90;50.20;;;;;;5010115;28;20029;-55
2023/06/16 04:22:39;;;;;;;5.03;3.38;;;35.50;49.50;;;;;;5011424;28;20029;-55
2023/06/16 04:25:06;;;;;;;5.15;3.63;;;35.80;48.60;;;;;;5011777;28;20033;-55
2023/06/16 04:27:33;;;;;;;5.53;3.20;;;36.30;47.70;;;;;;5011639;28;20470;-57
2023/06/16 04:30:02;;;;;;;6.80;3.30;;;36.70;47.10;;;;;;5011517;28;20189;-55
2023/06/16 04:32:28;;;;;;;;;;;37.00;46.20;;;;;;5011982;28;20033;-55
2023/06/16 04:34:54;;;;;;;5.15;3.47;;;37.30;47.70;;;;;;5011494;28;19910;-56
2023/06/16 04:37:20;;;;;;;3.47;2.83;;;37.60;46.20;;;;;;5014264;28;20101;-56
2023/06/16 04:39:47;;;;;;;7.72;4.00;;;37.80;45.20;;;;;;5015555;28;20157;-54
2023/06/16 04:42:13;;;;;;;7.00;3.38;;;38.00;44.50;;;;;;5015660;28;20502;-56
2023/06/16 04:44:40;;;;;;;5.93;3.40;;;38.20;43.90;;;;;;5015322;28;20393;-56
2023/06/16 04:47:07;;;;;;;4.38;3.60;;;38.50;43.90;;;;;;5014413;28;20500;-55
2023/06/16 04:49:33;;;;;;;6.97;3.90;;;38.60;43.40;;;;;;5014434;28;20088;-56
2023/06/16 04:51:58;;;;;;;6.20;3.35;;;38.90;43.20;;;;;;5014926;28;20521;-53
2023/06/16 04:54:24;;;;;;;4.75;3.50;;;39.10;42.90;;;;;;5014830;28;20521;-56
2023/06/16 04:56:50;;;;;;;8.25;3.83;;;39.30;42.80;;;;;;5013572;28;20041;-53
2023/06/16 04:59:16;;;;;;;4.93;4.20;;;39.40;42.80;;;;;;5014725;28;20033;-56
2023/06/16 05:01:41;;;;;;;5.18;3.65;;;39.50;42.50;;;;;;5014746;28;20101;-54
2023/06/16 05:04:08;;;;;;;4.30;3.20;;;39.60;42.20;;;;;;5011352;28;20029;-53
2023/06/16 05:06:36;;;;;;;3.67;3.20;;;39.80;42.10;;;;;;5013071;28;20080;-54
2023/06/16 05:09:02;;;;;;;5.27;3.60;;;39.80;42.00;;;;;;5013189;28;20029;-55
2023/06/16 05:11:28;;;;;;;3.63;3.17;;;39.80;41.80;;;;;;5012504;28;20022;-53
2023/06/16 05:13:54;;;;;;;4.63;3.50;;;39.80;41.90;;;;;;5012583;28;20064;-53
2023/06/16 05:16:19;;;;;;;6.00;3.53;;;39.70;41.60;;;;;;5013561;28;20084;-51
2023/06/16 05:18:45;;;;;;;5.28;3.30;;;39.70;41.20;;;;;;5012871;28;20061;-53
2023/06/16 05:21:11;;;;;;;5.15;3.65;;;39.60;40.90;;;;;;5012978;28;20036;-49
2023/06/16 05:23:36;;;;;;;4.88;3.80;;;39.40;40.60;;;;;;5013452;28;20058;-53
2023/06/16 05:26:03;;;;;;;4.70;3.38;;;38.80;40.60;;;;;;5014044;28;20087;-52
2023/06/16 05:28:29;;;;;;;5.13;3.80;;;38.10;41.30;;;;;;5013988;28;20367;-53
2023/06/16 05:30:55;;;;;;;6.10;4.00;;;37.10;42.00;;;;;;5013984;28;20079;-53
2023/06/16 05:33:20;;;;;;;5.35;4.00;;;36.10;42.70;;;;;;5014481;28;20101;-53
2023/06/16 05:35:46;;;;;;;4.93;3.92;;;35.30;43.50;;;;;;5014341;28;20094;-49
2023/06/16 05:38:12;;;;;;;7.68;3.97;;;34.40;44.40;;;;;;5014096;28;20038;-48
2023/06/16 05:40:37;;;;;;;4.72;3.75;;;33.60;45.40;;;;;;5013956;28;20030;-53
2023/06/16 05:43:03;;;;;;;6.43;3.90;;;32.90;46.40;;;;;;5013313;28;20040;-52
2023/06/16 05:45:29;;;;;;;6.18;4.15;;;32.20;47.10;;;;;;5013084;28;20053;-53
2023/06/16 05:47:54;;;;;;;7.43;3.60;;;31.60;48.00;;;;;;5013012;28;20504;-50
2023/06/16 05:50:20;;;;;;;6.65;3.78;;;31.00;48.60;;;;;;5012613;28;20128;-49
2023/06/16 05:52:46;;;;;;;8.10;4.13;;;30.50;49.40;;;;;;5012791;28;20026;-52
2023/06/16 05:55:11;;;;;;;6.32;3.95;;;30.10;50.10;;;;;;5010237;28;20053;-51
2023/06/16 05:57:37;;;;;;;7.22;4.38;;;29.70;50.70;;;;;;5013110;28;20028;-51
2023/06/16 06:00:05;;;;;;;5.80;3.65;;;29.40;51.20;;;;;;5015146;28;20072;-53
2023/06/16 06:02:31;;;;;;;6.85;4.30;;;29.00;51.90;;;;;;5006573;28;20371;-53
2023/06/16 06:04:56;;;;;;;4.60;3.50;;;28.80;52.30;;;;;;5008462;28;20037;-54
2023/06/16 06:07:22;;;;;;;6.53;3.75;;;28.60;52.60;;;;;;5013455;28;20466;-53
2023/06/16 06:09:47;;;;;;;5.65;4.13;;;28.40;52.80;;;;;;5011611;28;20061;-52
2023/06/16 06:12:13;;;;;;;4.00;3.60;;;28.20;53.00;;;;;;5009554;28;20033;-51
2023/06/16 06:14:39;;;;;;;4.20;3.30;;;28.10;53.30;;;;;;5013113;28;20068;-53
2023/06/16 06:17:05;;;;;;;5.20;3.63;;;27.90;53.50;;;;;;5005083;28;20041;-52
2023/06/16 06:19:31;;;;;;;4.75;3.20;;;27.80;53.80;;;;;;5008155;28;20044;-53
2023/06/16 06:21:56;;;;;;;6.60;3.42;;;27.70;54.20;;;;;;4993751;28;20465;-52
2023/06/16 06:24:22;;;;;;;3.85;3.40;;;27.60;54.20;;;;;;5007932;28;20378;-53
2023/06/16 06:26:48;;;;;;;4.25;3.30;;;27.40;54.30;;;;;;5000215;28;20054;-53
2023/06/16 06:29:17;;;;;;;5.22;3.30;;;27.30;54.70;;;;;;4993643;28;20030;-51
2023/06/16 06:31:43;;;;;;;7.30;3.10;;;27.20;55.00;;;;;;4994076;28;20558;-50
2023/06/16 06:34:08;;;;;;;4.65;3.28;;;27.10;55.10;;;;;;4995791;28;20101;-53
2023/06/16 06:36:39;;;;;;;3.45;2.80;;;27.10;55.30;;;;;;5001452;28;20060;-49
2023/06/16 06:39:05;;;;;;;3.92;3.15;;;27.00;55.50;;;;;;5005560;28;20030;-53
2023/06/16 06:41:31;;;;;;;4.43;3.30;;;27.00;55.80;;;;;;5003076;28;20359;-51
2023/06/16 06:43:56;;;;;;;4.15;2.90;;;26.90;55.90;;;;;;5009124;28;20033;-53
2023/06/16 06:46:22;;;;;;;4.43;2.88;;;26.80;55.80;;;;;;5009371;28;20441;-52
2023/06/16 06:48:47;;;;;;;4.45;3.65;;;26.70;55.70;;;;;;5013584;28;20385;-53
2023/06/16 06:51:13;;;;;;;6.57;3.33;;;26.70;56.00;;;;;;5007384;28;20026;-54
2023/06/16 06:53:40;;;;;;;4.22;3.42;;;26.70;56.30;;;;;;5005794;28;20033;-48
2023/06/16 06:56:06;;;;;;;6.40;3.33;;;26.70;56.50;;;;;;5012072;28;20033;-52
2023/06/16 06:58:33;;;;;;;4.75;3.15;;;26.70;56.50;;;;;;5006629;28;20052;-50
2023/06/16 07:00:58;;;;;;;3.58;2.78;;;26.70;56.50;;;;;;5002674;28;20017;-53
2023/06/16 07:03:26;;;;;;;3.50;3.03;;;26.70;56.60;;;;;;5009031;28;20038;-54
2023/06/16 07:05:52;;;;;;;4.75;3.00;;;26.70;56.90;;;;;;5011057;28;20065;-49
2023/06/16 07:08:17;;;;;;;4.45;3.53;;;26.70;57.00;;;;;;5003328;28;20029;-49
2023/06/16 07:10:43;;;;;;;4.50;3.00;;;26.70;57.00;;;;;;4998161;28;20108;-52
2023/06/16 07:13:09;;;;;;;4.13;3.28;;;26.60;57.20;;;;;;5006373;28;20053;-55
2023/06/16 07:15:34;;;;;;;4.40;2.90;;;26.60;57.10;;;;;;5011536;28;20081;-54
2023/06/16 07:18:00;;;;;;;5.63;3.28;;;26.60;57.20;;;;;;5001235;28;20029;-53
2023/06/16 07:20:26;;;;;;;6.18;3.30;;;26.50;57.40;;;;;;5003763;28;20392;-56
2023/06/16 07:22:51;;;;;;;6.72;3.28;;;26.50;57.30;;;;;;5009626;28;20109;-50
2023/06/16 07:25:17;;;;;;;5.18;3.38;;;26.50;57.00;;;;;;4999237;28;20519;-56
2023/06/16 07:27:43;;;;;;;5.53;3.75;;;26.50;56.70;;;;;;5008728;28;20072;-49
2023/06/16 07:30:09;;;;;;;4.40;3.40;;;26.40;57.00;;;;;;4999946;28;20018;-53
2023/06/16 07:32:39;;;;;;;4.20;3.20;;;26.40;57.50;;;;;;5003113;28;20041;-52
2023/06/16 07:35:06;;;;;;;4.78;3.20;;;26.40;57.10;;;;;;5001358;28;20720;-53
2023/06/16 07:37:32;;;;;;;6.57;3.30;;;26.40;56.80;;;;;;5000647;28;20021;-50
2023/06/16 07:39:58;;;;;;;6.53;3.33;;;26.40;56.60;;;;;;5008070;28;20548;-55
2023/06/16 07:42:24;;;;;;;3.83;3.22;;;26.30;56.70;;;;;;5004414;28;20030;-50
2023/06/16 07:44:51;;;;;;;5.75;3.50;;;26.40;57.00;;;;;;5002670;28;20034;-55
2023/06/16 07:47:16;;;;;;;4.90;3.50;;;26.30;57.10;;;;;;4999562;28;20029;-56
2023/06/16 07:49:42;;;;;;;5.55;4.03;;;26.30;57.10;;;;;;4997528;28;20504;-54
2023/06/16 07:52:09;;;;;;;8.32;4.13;;;26.30;57.00;;;;;;5000975;28;20478;-55
2023/06/16 07:54:35;;;;;;;5.75;3.88;;;26.30;57.00;;;;;;5007791;28;20030;-54
2023/06/16 07:57:00;;;;;;;5.72;3.60;;;26.30;57.20;;;;;;5020096;28;20038;-50
2023/06/16 07:59:26;;;;;;;7.25;4.00;;;26.30;57.40;;;;;;5009780;28;20056;-49
2023/06/16 08:01:52;;;;;;;6.93;3.45;;;26.30;57.40;;;;;;4996156;28;20503;-57
2023/06/16 08:04:17;;;;;;;5.90;3.90;;;26.20;57.40;;;;;;4992815;28;20022;-53
2023/06/16 08:06:43;;;;;;;5.18;3.65;;;26.20;57.90;;;;;;4997186;28;20045;-54
2023/06/16 08:09:10;;;;;;;7.22;3.42;;;26.20;57.70;;;;;;4996440;28;20847;-56
2023/06/16 08:11:36;;;;;;;5.38;3.60;;;26.20;57.50;;;;;;4996529;28;20038;-57
2023/06/16 08:14:02;;;;;;;5.45;3.45;;;26.20;57.60;;;;;;4999633;28;20398;-53
2023/06/16 08:16:28;;;;;;;5.93;3.72;;;26.20;57.40;;;;;;4998708;28;20037;-56
2023/06/16 08:18:56;;;;;;;5.15;3.45;;;26.20;57.40;;;;;;5004589;28;20044;-54
2023/06/16 08:21:22;;;;;;;8.60;4.00;;;26.20;57.70;;;;;;4994898;28;20034;-57
2023/06/16 08:23:48;;;;;;;5.68;3.53;;;26.10;57.80;;;;;;4998834;28;20454;-55
2023/06/16 08:26:13;;;;;;;5.93;3.35;;;26.10;57.80;;;;;;5001376;28;20120;-53
2023/06/16 08:28:40;;;;;;;4.50;3.25;;;26.10;58.00;;;;;;4999352;28;20786;-57
2023/06/16 08:31:06;;;;;;;8.70;3.88;;;26.10;58.00;;;;;;5003620;28;20061;-52
2023/06/16 08:33:32;;;;;;;7.93;3.60;;;26.10;58.00;;;;;;4995731;28;20042;-51
2023/06/16 08:35:58;;;;;;;7.10;3.90;;;26.10;57.80;;;;;;4995892;28;20045;-52
2023/06/16 08:38:24;;;;;;;7.65;3.65;;;26.10;57.70;;;;;;4990296;28;20030;-52
2023/06/16 08:40:49;;;;;;;6.78;3.47;;;26.00;57.50;;;;;;4993697;28;20049;-54
2023/06/16 08:43:16;;;;;;;5.43;3.35;;;26.00;57.80;;;;;;4997248;28;20061;-54
2023/06/16 08:45:45;;;;;;;5.20;3.10;;;26.00;57.90;;;;;;4993200;28;20040;-53
2023/06/16 08:48:11;;;;;;;5.60;3.50;;;26.00;58.00;;;;;;4995285;28;20113;-54
2023/06/16 08:50:38;;;;;;;5.15;3.65;;;26.00;58.50;;;;;;4998040;28;20600;-55
2023/06/16 08:53:08;;;;;;;6.75;3.53;;;26.00;58.30;;;;;;5003428;28;20046;-48
2023/06/16 08:55:35;;;;;;;;;;;26.00;57.60;;;;;;4999002;28;20117;-55
2023/06/16 08:58:01;;;;;;;8.10;3.35;;;25.90;57.60;;;;;;4993497;28;20432;-52
2023/06/16 09:00:30;;;;;;;6.20;3.63;;;26.00;57.50;;;;;;4994675;28;20034;-53
2023/06/16 09:02:59;;;;;;;4.90;3.88;;;26.00;57.20;;;;;;5000427;28;20033;-53
2023/06/16 09:05:25;;;;;;;6.60;3.50;;;25.90;57.00;;;;;;4999325;28;20408;-55
2023/06/16 09:07:51;;;;;;;5.75;3.33;;;25.90;57.00;;;;;;4998274;28;20121;-52
2023/06/16 09:10:18;;;;;;;5.70;3.88;;;25.90;56.90;;;;;;4995601;28;20981;-53
2023/06/16 09:12:44;;;;;;;4.93;3.50;;;25.90;56.50;;;;;;4996843;28;20031;-56
2023/06/16 09:15:10;;;;;;;7.00;3.60;;;25.90;56.70;;;;;;4993387;28;20997;-59
2023/06/16 09:17:39;;;;;;;6.55;4.10;;;25.80;56.50;;;;;;5007656;28;20030;-55
2023/06/16 09:20:14;;;;;;;5.00;3.55;;;25.80;56.40;;;;;;5004650;28;20081;-58
2023/06/16 09:22:39;;;;;;;4.75;3.33;;;25.80;56.00;;;;;;4996447;28;20034;-59
2023/06/16 09:25:05;;;;;;;4.13;3.33;;;25.80;56.00;;;;;;4997407;28;20515;-52
2023/06/16 09:27:46;;;;;;;5.22;3.35;;;25.70;55.80;;;;;;4999680;28;20034;-56
2023/06/16 09:30:14;;;;;;;4.05;3.20;;;25.70;55.70;;;;;;5001354;28;20084;-54
2023/06/16 09:32:41;;;;;;;4.78;3.35;;;25.60;56.10;;;;;;4997421;28;21733;-56
2023/06/16 09:35:42;;;;;;;5.70;3.35;;;25.60;56.10;;;;;;5000461;28;20054;-52
2023/06/16 09:38:10;;;;;;;5.97;3.92;;;25.60;56.10;;;;;;4958294;28;20090;-53
2023/06/16 09:40:38;;;;;;;4.65;3.85;;;25.60;56.10;;;;;;4987324;28;20046;-51
2023/06/16 09:43:08;;;;;;;4.22;3.40;;;25.60;56.90;;;;;;5004641;28;20037;-56
2023/06/16 09:45:35;;;;;;;4.35;3.20;;;25.60;56.30;;;;;;5000463;28;20072;-50
2023/06/16 09:48:05;;;;;;;5.07;3.83;;;25.60;56.30;;;;;;5000004;28;20443;-50
2023/06/16 09:50:32;;;;;;;8.50;3.60;;;25.60;56.40;;;;;;4996458;28;20477;-56
2023/06/16 09:52:58;;;;;;;5.47;3.28;;;25.50;56.20;;;;;;4997915;28;20207;-54
2023/06/16 09:55:28;;;;;;;4.32;3.10;;;25.50;57.00;;;;;;4999317;28;20030;-56
2023/06/16 09:57:55;;;;;;;5.37;3.30;;;25.50;56.60;;;;;;5004004;28;20062;-53
2023/06/16 10:00:22;;;;;;;6.93;3.20;;;25.50;56.70;;;;;;5006212;28;20342;-52
2023/06/16 10:02:49;;;;;;;4.82;3.30;;;25.50;56.90;;;;;;5011797;28;20030;-58
2023/06/16 10:05:18;;;;;;;6.28;3.28;;;25.40;56.70;;;;;;5002982;28;20022;-50
2023/06/16 10:07:47;;;;;;;4.75;3.13;;;25.50;56.70;;;;;;5000054;28;20034;-54
2023/06/16 10:10:13;;;;;;;6.38;3.30;;;25.40;56.40;;;;;;5003842;28;20022;-55
2023/06/16 10:12:58;;;;;;;6.20;3.38;;;25.40;56.30;;;;;;5008863;28;20443;-57
2023/06/16 10:15:26;;;;;;;5.25;3.17;;;25.40;56.10;;;;;;5003708;28;20389;-56
2023/06/16 10:17:54;;;;;;;4.72;2.80;;;25.40;56.20;;;;;;4996999;28;20022;-56
2023/06/16 10:20:25;;;;;;;4.88;3.53;;;25.40;55.90;;;;;;5000820;28;20067;-56
2023/06/16 10:22:51;;;;;;;5.20;3.35;;;25.40;55.90;;;;;;4998597;28;20041;-55
2023/06/16 10:25:18;;;;;;;5.90;3.30;;;25.40;56.00;;;;;;4997458;28;20714;-56
2023/06/16 10:27:45;;;;;;;4.72;3.33;;;25.40;55.90;;;;;;5001130;28;20529;-55
2023/06/16 10:30:16;;;;;;;4.68;3.00;;;25.30;55.90;;;;;;5007040;28;20174;-54
2023/06/16 10:32:48;;;;;;;7.57;3.58;;;25.30;55.90;;;;;;5004414;28;20092;-56
2023/06/16 10:35:16;;;;;;;4.85;3.55;;;25.30;55.80;;;;;;5001523;28;20500;-57
2023/06/16 10:37:42;;;;;;;5.72;3.03;;;25.30;55.80;;;;;;5008203;28;20026;-52
2023/06/16 10:40:12;;;;;;;5.68;3.35;;;25.30;56.40;;;;;;4998360;28;20073;-55
2023/06/16 10:42:40;;;;;;;5.50;3.37;;;25.30;55.90;;;;;;5005762;28;20026;-56
2023/06/16 10:45:26;;;;;;;4.30;3.13;;;25.30;55.80;;;;;;5004957;28;20268;-57
2023/06/16 10:48:03;;;;;;;7.82;3.13;;;25.30;55.60;;;;;;5007048;28;20512;-54
2023/06/16 10:50:58;;;;;;;6.65;3.47;;;25.30;55.40;;;;;;5004007;28;20054;-51
2023/06/16 10:53:24;;;;;;;6.18;3.45;;;25.30;55.50;;;;;;5000805;28;20075;-52
2023/06/16 10:56:10;;;;;;;6.85;3.33;;;25.30;55.70;;;;;;5016372;28;20025;-54
2023/06/16 10:58:36;;;;;;;5.32;3.22;;;25.30;55.90;;;;;;5006548;28;20025;-53
2023/06/16 11:01:02;;;;;;;5.20;3.20;;;25.30;56.00;;;;;;5009405;28;20716;-54
2023/06/16 11:03:46;;;;;;;7.43;3.30;;;25.30;56.40;;;;;;5003103;28;20711;-54
2023/06/16 11:06:12;;;;;;;4.90;3.00;;;25.30;56.60;;;;;;4999456;28;20039;-52
2023/06/16 11:08:49;;;;;;;5.50;3.30;;;25.30;56.40;;;;;;4996750;28;20088;-54
2023/06/16 11:11:16;;;;;;;6.82;3.60;;;25.40;56.50;;;;;;5005013;28;20083;-53
2023/06/16 11:13:42;;;;;;;5.13;3.00;;;25.40;56.30;;;;;;5008111;28;20651;-55
2023/06/16 11:16:08;;;;;;;6.38;3.28;;;25.40;56.00;;;;;;5002842;28;20041;-47
2023/06/16 11:18:35;;;;;;;5.38;3.22;;;25.40;55.80;;;;;;5007157;28;20114;-55
2023/06/16 11:21:07;;;;;;;5.13;3.22;;;25.40;55.50;;;;;;5008146;28;21671;-54
2023/06/16 11:23:34;;;;;;;4.72;3.25;;;25.40;55.50;;;;;;5000588;28;20034;-50
2023/06/16 11:26:08;;;;;;;6.32;3.20;;;25.40;55.50;;;;;;5004233;28;20094;-55
2023/06/16 11:28:37;;;;;;;3.40;2.97;;;25.40;55.30;;;;;;5004423;28;20026;-55
2023/06/16 11:31:02;;;;;;;6.00;3.30;;;25.40;55.40;;;;;;5015091;28;20026;-50
2023/06/16 11:33:32;;;;;;;7.38;3.78;;;25.40;55.90;;;;;;4998125;28;20030;-54
2023/06/16 11:36:16;;;;;;;5.75;3.47;;;25.40;55.80;;;;;;5007591;28;20084;-53
2023/06/16 11:38:43;;;;;;;5.60;3.22;;;25.40;55.90;;;;;;5009757;28;20041;-53
2023/06/16 11:41:34;;;;;;;6.07;3.45;;;25.40;55.80;;;;;;5008917;28;20037;-53
2023/06/16 11:44:00;;;;;;;4.78;3.45;;;25.40;56.30;;;;;;5004326;28;20176;-54
2023/06/16 11:46:28;;;;;;;4.70;3.10;;;25.50;56.00;;;;;;5008332;28;20117;-53
2023/06/16 11:48:54;;;;;;;3.92;3.10;;;25.40;56.40;;;;;;5005458;28;20021;-56
2023/06/16 11:51:23;;;;;;;3.97;2.97;;;25.50;55.50;;;;;;4995530;28;20033;-50
2023/06/16 11:53:50;;;;;;;4.35;2.80;;;25.50;55.50;;;;;;4996316;28;20044;-50
2023/06/16 11:56:17;;;;;;;4.88;3.20;;;25.50;55.50;;;;;;4971818;28;20527;-49
2023/06/16 11:58:44;;;;;;;5.25;3.03;;;25.50;55.80;;;;;;4992132;28;20025;-51
2023/06/16 12:01:14;;;;;;;5.10;3.10;;;25.50;56.00;;;;;;4991941;28;20054;-52
2023/06/16 12:03:40;;;;;;;4.63;3.10;;;25.50;55.60;;;;;;5004072;28;20025;-49
2023/06/16 12:06:06;;;;;;;4.82;3.03;;;25.50;55.40;;;;;;4998695;28;20096;-49
2023/06/16 12:08:46;;;;;;;4.53;3.30;;;25.50;55.50;;;;;;4996257;28;20037;-51
2023/06/16 12:11:21;;;;;;;6.63;3.22;;;25.50;55.60;;;;;;4995888;28;20165;-48
2023/06/16 12:13:48;;;;;;;5.25;3.45;;;25.50;55.50;;;;;;4994395;28;20252;-51
2023/06/16 12:16:14;;;;;;;6.00;3.65;;;25.50;55.60;;;;;;5001347;28;20034;-55
2023/06/16 12:18:40;;;;;;;6.65;3.13;;;25.50;55.80;;;;;;4999996;28;20017;-54
2023/06/16 12:21:16;;;;;;;5.35;3.70;;;25.50;55.50;;;;;;4998241;28;20742;-53
2023/06/16 12:23:47;;;;;;;5.03;2.90;;;25.50;55.30;;;;;;4999833;28;20026;-53
2023/06/16 12:26:31;;;;;;;;;;;25.50;55.80;;;;;;4996569;28;20164;-51
2023/06/16 12:28:58;;;;;;;4.20;2.97;;;25.40;55.80;;;;;;5003397;28;20271;-55
2023/06/16 12:31:28;;;;;;;7.95;3.33;;;25.40;55.80;;;;;;4994559;28;20412;-52
2023/06/16 12:33:56;;;;;;;6.20;3.35;;;25.40;55.70;;;;;;4999567;28;20040;-56
2023/06/16 12:36:22;;;;;;;4.45;3.17;;;25.40;55.30;;;;;;5005305;28;20034;-53
2023/06/16 12:38:49;;;;;;;5.03;3.28;;;25.40;55.20;;;;;;4999786;28;20469;-54
2023/06/16 12:41:16;;;;;;;7.03;3.47;;;25.40;55.20;;;;;;4996301;28;20484;-51
2023/06/16 12:43:50;;;;;;;4.57;3.60;;;25.40;55.00;;;;;;4997683;28;20131;-52
2023/06/16 12:46:16;;;;;;;4.28;3.33;;;25.40;55.00;;;;;;4999205;28;20068;-48
2023/06/16 12:48:42;;;;;;;7.15;3.80;;;25.40;55.40;;;;;;5002188;28;20183;-52
2023/06/16 12:51:09;;;;;;;4.28;3.38;;;25.40;55.60;;;;;;5002171;28;20029;-52